createdAt,value
2019-02-07T00:02:06.481Z,-0.35
2019-02-07T00:07:06.163Z,-0.31
2019-02-07T00:12:06.461Z,-0.35
2019-02-07T00:17:06.189Z,-0.29
2019-02-07T00:22:06.725Z,-0.24
2019-02-07T00:27:06.213Z,-0.12
2019-02-07T00:31:07.810Z,-0.1
2019-02-07T00:37:06.126Z,-0.08
2019-02-07T00:41:06.967Z,-0.16
2019-02-07T00:46:07.063Z,-0.39
2019-02-07T00:51:07.503Z,-0.43
2019-02-07T00:56:06.944Z,-0.4
2019-02-07T01:01:06.211Z,-0.43
2019-02-07T01:06:06.854Z,-0.47
2019-02-07T01:11:06.803Z,-0.44
2019-02-07T01:15:09.121Z,-0.42
2019-02-07T01:16:07.103Z,-0.42
2019-02-07T01:20:07.206Z,-0.37
2019-02-07T01:25:07.073Z,-0.37
2019-02-07T01:30:08.152Z,-0.41
2019-02-07T01:35:07.019Z,-0.25
2019-02-07T01:40:07.128Z,-0.27
2019-02-07T01:45:14.049Z,-0.36
2019-02-07T01:50:07.584Z,-0.36
2019-02-07T01:54:07.065Z,-0.45
2019-02-07T01:55:06.765Z,-0.45
2019-02-07T02:00:08.925Z,-0.55
2019-02-07T02:04:08.900Z,-0.36
2019-02-07T02:09:08.992Z,-0.21
2019-02-07T02:14:07.821Z,-0.42
2019-02-07T02:19:07.279Z,-0.26
2019-02-07T02:24:06.990Z,-0.24
2019-02-07T02:29:07.564Z,-0.31
2019-02-07T02:34:06.982Z,-0.59
2019-02-07T02:38:06.123Z,-0.55
2019-02-07T02:44:07.566Z,-0.37
2019-02-07T02:48:06.414Z,-0.35
2019-02-07T02:53:06.066Z,-0.37
2019-02-07T02:58:06.642Z,-0.44
2019-02-07T03:03:07.287Z,-0.42
2019-02-07T03:08:06.835Z,-0.45
2019-02-07T03:13:07.191Z,-0.41
2019-02-07T03:18:07.596Z,-0.41
2019-02-07T03:23:07.249Z,-0.62
2019-02-07T03:27:06.294Z,-0.82
2019-02-07T03:32:06.796Z,-0.95
2019-02-07T03:37:07.243Z,-1
2019-02-07T03:42:06.010Z,-0.94
2019-02-07T03:47:07.091Z,-0.95
2019-02-07T03:52:06.422Z,-0.9
2019-02-07T03:57:07.204Z,-0.96
2019-02-07T04:02:06.824Z,-1.04
2019-02-07T04:07:07.540Z,-1.01
2019-02-07T04:11:06.977Z,-0.95
2019-02-07T04:16:15.746Z,-0.87
2019-02-07T04:21:06.739Z,-0.94
2019-02-07T04:26:06.919Z,-0.85
2019-02-07T04:31:06.162Z,-0.81
2019-02-07T04:36:07.157Z,-0.85
2019-02-07T04:41:06.740Z,-0.85
2019-02-07T04:45:08.236Z,-0.97
2019-02-07T04:50:06.983Z,-1.04
2019-02-07T04:55:06.885Z,-1.19
2019-02-07T05:00:09.928Z,-1.26
2019-02-07T05:05:06.402Z,-1.38
2019-02-07T05:10:06.981Z,-1.54
2019-02-07T05:15:08.008Z,-1.42
2019-02-07T05:20:06.910Z,-1.23
2019-02-07T05:25:09.115Z,-1.16
2019-02-07T05:30:08.912Z,-1.03
2019-02-07T05:34:06.448Z,-1.02
2019-02-07T05:39:07.461Z,-1.11
2019-02-07T05:44:06.549Z,-1.06
2019-02-07T05:49:07.614Z,-1.1
2019-02-07T05:54:07.037Z,-1.21
2019-02-07T05:59:07.592Z,-1.21
2019-02-07T06:04:06.765Z,-1.14
2019-02-07T06:08:08.089Z,-1.1
2019-02-07T06:14:06.459Z,-0.94
2019-02-07T06:18:06.873Z,-0.71
2019-02-07T06:23:07.357Z,-0.46
2019-02-07T06:28:06.908Z,-0.41
2019-02-07T06:33:07.307Z,-0.35
2019-02-07T06:38:06.834Z,-0.43
2019-02-07T06:43:07.106Z,-0.52
2019-02-07T06:48:07.555Z,-0.52
2019-02-07T06:52:07.473Z,-0.55
2019-02-07T06:53:06.838Z,-0.55
2019-02-07T06:58:06.289Z,-0.55
2019-02-07T07:02:06.011Z,-0.54
2019-02-07T07:07:06.460Z,-0.54
2019-02-07T07:12:06.425Z,-0.54
2019-02-07T07:17:06.994Z,-0.55
2019-02-07T07:22:06.590Z,-0.54
2019-02-07T07:27:06.254Z,-0.49
2019-02-07T07:32:06.819Z,-0.35
2019-02-07T07:36:07.353Z,-0.16
2019-02-07T07:41:07.418Z,0.02
2019-02-07T07:46:07.042Z,0.14
2019-02-07T07:51:06.598Z,0.31
2019-02-07T07:56:07.108Z,0.42
2019-02-07T08:01:06.334Z,0.55
2019-02-07T08:06:06.876Z,0.62
2019-02-07T08:11:07.060Z,0.69
2019-02-07T08:15:09.794Z,0.8
2019-02-07T08:16:06.917Z,0.8
2019-02-07T08:21:06.494Z,1.04
2019-02-07T08:25:06.927Z,1.27
2019-02-07T08:30:08.926Z,1.38
2019-02-07T08:35:07.575Z,1.34
2019-02-07T08:40:08.492Z,1.41
2019-02-07T08:45:08.861Z,1.6
2019-02-07T08:50:07.607Z,1.51
2019-02-07T08:55:07.238Z,1.49
2019-02-07T09:00:08.172Z,1.49
2019-02-07T09:04:06.453Z,1.34
2019-02-07T09:09:07.355Z,1.22
2019-02-07T09:14:06.912Z,1.31
2019-02-07T09:19:06.164Z,1.26
2019-02-07T09:24:06.837Z,1.1
2019-02-07T09:29:06.342Z,0.89
2019-02-07T09:34:06.129Z,0.76
2019-02-07T09:38:06.730Z,0.81
2019-02-07T09:43:06.691Z,0.84
2019-02-07T09:48:06.114Z,0.93
2019-02-07T09:53:06.762Z,0.97
2019-02-07T09:58:06.261Z,1.03
2019-02-07T10:03:06.807Z,1.26
2019-02-07T10:08:06.272Z,1.57
2019-02-07T10:12:06.609Z,1.56
2019-02-07T10:17:06.830Z,1.64
2019-02-07T10:22:06.534Z,1.7
2019-02-07T10:27:06.171Z,1.81
2019-02-07T10:32:06.500Z,2.31
2019-02-07T10:36:07.093Z,2.15
2019-02-07T10:41:07.258Z,1.82
2019-02-07T10:46:06.450Z,1.52
2019-02-07T10:51:07.478Z,1.35
2019-02-07T10:56:07.084Z,1.32
2019-02-07T11:01:06.868Z,1.42
2019-02-07T11:05:07.212Z,1.55
2019-02-07T11:11:06.204Z,1.71
2019-02-07T11:15:08.658Z,1.83
2019-02-07T11:20:06.918Z,1.92
2019-02-07T11:25:07.469Z,2.03
2019-02-07T11:30:08.337Z,2.25
2019-02-07T11:35:07.365Z,2.54
2019-02-07T11:39:07.231Z,2.64
2019-02-07T11:44:06.785Z,2.85
2019-02-07T11:49:07.070Z,2.87
2019-02-07T11:54:06.732Z,3.11
2019-02-07T11:59:06.591Z,3.56
2019-02-07T12:04:07.005Z,3.83
2019-02-07T12:09:07.928Z,3.94
2019-02-07T12:13:07.186Z,4.05
2019-02-07T12:14:06.917Z,4.05
2019-02-07T12:18:06.398Z,4.13
2019-02-07T12:23:06.555Z,4.23
2019-02-07T12:28:06.150Z,4.21
2019-02-07T12:33:06.376Z,4.2
2019-02-07T12:38:05.959Z,4.16
2019-02-07T12:43:06.696Z,4.19
2019-02-07T12:48:06.031Z,4.3
2019-02-07T12:52:06.727Z,4.77
2019-02-07T12:57:06.263Z,4.46
2019-02-07T13:02:06.650Z,4.23
2019-02-07T13:07:06.956Z,4.02
2019-02-07T13:12:09.166Z,3.9
2019-02-07T13:16:06.880Z,3.62
2019-02-07T13:17:06.041Z,3.62
2019-02-07T13:22:06.770Z,3.57
2019-02-07T13:26:06.519Z,3.5
2019-02-07T13:31:06.053Z,3.31
2019-02-07T13:36:06.774Z,2.98
2019-02-07T13:41:06.934Z,2.61
2019-02-07T13:46:07.239Z,2.42
2019-02-07T13:50:06.610Z,2.29
2019-02-07T13:55:06.859Z,2.25
2019-02-07T14:00:08.313Z,2.42
2019-02-07T14:05:06.845Z,2.56
2019-02-07T14:10:06.545Z,2.6
2019-02-07T14:15:08.755Z,2.65
2019-02-07T14:20:06.094Z,2.7
2019-02-07T14:25:07.467Z,2.81
2019-02-07T14:29:06.431Z,2.84
2019-02-07T14:34:06.669Z,2.79
2019-02-07T14:39:06.671Z,2.7
2019-02-07T14:44:06.782Z,2.69
2019-02-07T14:49:06.091Z,2.66
2019-02-07T14:53:07.139Z,2.62
2019-02-07T14:54:06.620Z,2.62
2019-02-07T14:58:06.654Z,2.52
2019-02-07T15:03:06.971Z,2.55
2019-02-07T15:08:06.169Z,2.64
2019-02-07T15:13:06.590Z,2.74
2019-02-07T15:18:06.645Z,2.78
2019-02-07T15:23:06.728Z,2.78
2019-02-07T15:27:06.881Z,2.73
2019-02-07T15:28:06.335Z,2.73
2019-02-07T15:32:06.907Z,2.58
2019-02-07T15:37:06.391Z,2.5
2019-02-07T15:42:06.391Z,2.46
2019-02-07T15:47:08.642Z,2.54
2019-02-07T15:52:06.520Z,2.52
2019-02-07T15:57:06.763Z,2.39
2019-02-07T16:02:06.197Z,2.26
2019-02-07T16:06:07.538Z,2.19
2019-02-07T16:11:06.749Z,2.09
2019-02-07T16:16:06.542Z,1.98
2019-02-07T16:21:06.694Z,1.8
2019-02-07T16:26:07.639Z,1.67
2019-02-07T16:31:06.706Z,1.69
2019-02-07T16:35:07.335Z,1.66
2019-02-07T16:40:06.983Z,1.6
2019-02-07T16:45:08.495Z,1.6
2019-02-07T16:50:06.730Z,1.54
2019-02-07T16:55:06.437Z,1.64
2019-02-07T17:00:07.962Z,1.79
2019-02-07T17:05:06.906Z,1.82
2019-02-07T17:09:07.016Z,1.84
2019-02-07T17:10:06.074Z,1.84
2019-02-07T17:14:06.709Z,1.87
2019-02-07T17:19:06.829Z,1.72
2019-02-07T17:24:06.314Z,1.54
2019-02-07T17:29:06.791Z,1.52
2019-02-07T17:34:06.492Z,1.64
2019-02-07T17:39:06.635Z,1.81
2019-02-07T17:43:06.761Z,1.91
2019-02-07T17:48:06.829Z,2.25
2019-02-07T17:53:06.311Z,2.46
2019-02-07T17:58:06.775Z,2.38
2019-02-07T18:03:06.282Z,2.07
2019-02-07T18:08:07.108Z,1.91
2019-02-07T18:13:05.983Z,1.97
2019-02-07T18:17:06.889Z,1.87
2019-02-07T18:18:05.942Z,1.87
2019-02-07T18:22:06.571Z,1.75
2019-02-07T18:27:06.460Z,1.46
2019-02-07T18:32:06.175Z,1.32
2019-02-07T18:37:06.657Z,1.39
2019-02-07T18:42:06.634Z,1.63
2019-02-07T18:47:06.131Z,1.66
2019-02-07T18:52:06.730Z,1.73
2019-02-07T18:56:06.183Z,1.73
2019-02-07T19:01:07.151Z,1.8
2019-02-07T19:06:06.566Z,2.06
2019-02-07T19:11:06.764Z,2.08
2019-02-07T19:16:06.132Z,2.07
2019-02-07T19:21:06.879Z,2.06
2019-02-07T19:25:06.906Z,2.02
2019-02-07T19:26:05.960Z,2.02
2019-02-07T19:30:08.022Z,2.25
2019-02-07T19:35:06.162Z,2.11
2019-02-07T19:40:06.341Z,1.94
2019-02-07T19:45:08.024Z,1.8
2019-02-07T19:50:06.074Z,1.76
2019-02-07T19:55:06.612Z,1.75
2019-02-07T19:59:06.368Z,1.5
2019-02-07T20:04:06.341Z,1.47
2019-02-07T20:09:07.388Z,1.41
2019-02-07T20:14:06.225Z,1.53
2019-02-07T20:19:06.563Z,1.47
2019-02-07T20:24:06.123Z,1.45
2019-02-07T20:29:06.639Z,1.45
2019-02-07T20:34:06.842Z,1.66
2019-02-07T20:39:06.934Z,1.57
2019-02-07T20:43:06.983Z,1.54
2019-02-07T20:48:06.951Z,1.52
2019-02-07T20:53:06.355Z,1.31
2019-02-07T20:58:06.908Z,1.39
2019-02-07T21:03:06.564Z,1.38
2019-02-07T21:08:06.287Z,1.47
2019-02-07T21:12:06.602Z,1.62
2019-02-07T21:17:06.933Z,1.54
2019-02-07T21:22:06.633Z,1.51
2019-02-07T21:27:06.753Z,1.64
2019-02-07T21:32:05.962Z,1.84
2019-02-07T21:37:06.779Z,1.98
2019-02-07T21:42:06.535Z,1.93
2019-02-07T21:47:06.131Z,1.87
2019-02-07T21:52:06.825Z,1.88
2019-02-07T21:56:06.525Z,1.84
2019-02-07T22:01:06.072Z,1.83
2019-02-07T22:06:06.586Z,1.87
2019-02-07T22:11:06.832Z,1.8
2019-02-07T22:16:06.228Z,1.82
2019-02-07T22:21:06.689Z,1.8
2019-02-07T22:26:06.877Z,1.66
2019-02-07T22:30:08.353Z,1.81
2019-02-07T22:35:06.428Z,1.84
2019-02-07T22:40:06.244Z,1.68
2019-02-07T22:45:07.977Z,1.65
2019-02-07T22:50:07.414Z,1.67
2019-02-07T22:55:06.945Z,1.75
2019-02-07T22:59:06.849Z,1.76
2019-02-07T23:05:06.862Z,1.78
2019-02-07T23:09:07.074Z,1.54
2019-02-07T23:14:06.646Z,1.49
2019-02-07T23:19:06.187Z,1.77
2019-02-07T23:24:06.694Z,1.66
2019-02-07T23:29:06.136Z,1.56
2019-02-07T23:34:06.291Z,1.66
2019-02-07T23:39:07.189Z,1.75
2019-02-07T23:43:06.901Z,1.75
2019-02-07T23:48:06.732Z,1.68
2019-02-07T23:53:14.216Z,1.6
2019-02-07T23:58:06.837Z,1.57
